createdAt,value
2018-03-07T05:07:44.658Z,59.65
2018-03-07T05:10:13.316Z,61.73
2018-03-07T05:12:50.367Z,57.77
2018-03-07T05:15:25.514Z,57.78
2018-03-07T05:17:53.393Z,58.87
2018-03-07T05:20:23.861Z,60.17
2018-03-07T05:22:52.228Z,55.60
2018-03-07T05:25:23.914Z,51.17
2018-03-07T05:27:52.168Z,53.90
2018-03-07T05:30:24.110Z,48.80
2018-03-07T05:32:51.605Z,56.65
2018-03-07T05:35:23.616Z,57.55
2018-03-07T05:37:51.901Z,56.30
2018-03-07T05:40:24.724Z,53.57
2018-03-07T05:42:52.218Z,53.60
2018-03-07T05:45:26.301Z,51.07
2018-03-07T05:47:54.906Z,51.00
2018-03-07T05:50:42.171Z,54.75
2018-03-07T05:53:17.367Z,45.90
2018-03-07T05:55:50.818Z,54.70
2018-03-07T06:01:23.838Z,54.15
2018-03-07T06:03:51.507Z,55.45
2018-03-07T06:09:18.167Z,53.58
2018-03-07T06:11:49.287Z,54.97
2018-03-07T06:17:24.113Z,51.58
2018-03-07T06:22:50.897Z,55.10
2018-03-07T06:28:07.682Z,52.35
2018-03-07T06:30:48.343Z,54.13
2018-03-07T06:33:22.669Z,49.90
2018-03-07T06:35:50.905Z,52.25
2018-03-07T06:41:48.490Z,53.60
2018-03-07T06:44:17.716Z,56.20
2018-03-07T06:46:49.110Z,58.83
2018-03-07T06:52:25.447Z,54.28
2018-03-07T07:08:52.879Z,55.63
2018-03-07T07:11:37.520Z,58.72
2018-03-07T07:17:12.548Z,51.85
2018-03-07T07:19:50.286Z,53.65
2018-03-07T07:25:18.572Z,56.72
2018-03-07T07:27:50.730Z,55.60
2018-03-07T07:33:18.978Z,46.67
2018-03-07T07:38:52.157Z,56.83
2018-03-07T07:41:20.888Z,56.42
2018-03-07T07:43:49.155Z,57.60
2018-03-07T07:46:19.627Z,56.70
2018-03-07T07:48:48.807Z,58.33
2018-03-07T07:58:44.228Z,50.42
2018-03-07T08:03:58.929Z,46.65
2018-03-07T08:06:36.047Z,45.75
2018-03-07T08:09:11.360Z,45.75
2018-03-07T08:11:51.517Z,44.05
2018-03-07T08:14:19.684Z,41.83
2018-03-07T08:16:51.423Z,43.17
2018-03-07T08:19:19.334Z,42.70
2018-03-07T08:21:49.967Z,42.28
2018-03-07T08:24:22.563Z,45.88
2018-03-07T08:29:49.961Z,44.93
2018-03-07T08:32:17.552Z,42.95
2018-03-07T08:34:51.722Z,41.50
2018-03-07T08:37:19.241Z,37.70
2018-03-07T08:39:49.937Z,38.75
2018-03-07T08:42:18.334Z,37.85
2018-03-07T08:44:48.308Z,35.40
2018-03-07T08:47:17.067Z,36.05
2018-03-07T08:49:48.024Z,37.78
2018-03-07T08:52:17.511Z,37.92
2018-03-07T08:54:49.132Z,40.23
2018-03-07T09:13:48.742Z,43.08
2018-03-07T09:19:19.536Z,37.67
2018-03-07T09:21:51.332Z,38.10
2018-03-07T09:24:19.559Z,35.77
2018-03-07T09:26:50.717Z,34.88
2018-03-07T09:29:19.159Z,34.80
2018-03-07T09:31:49.241Z,31.98
2018-03-07T09:34:21.006Z,32.73
2018-03-07T09:39:48.512Z,32.13
2018-03-07T09:42:19.421Z,30.48
2018-03-07T09:44:50.798Z,31.05
2018-03-07T09:47:20.381Z,29.80
2018-03-07T09:49:49.815Z,28.27
2018-03-07T09:52:21.688Z,28.15
2018-03-07T09:54:50.317Z,27.37
2018-03-07T10:00:21.806Z,27.13
2018-03-07T10:02:49.710Z,21.48
2018-03-07T10:10:21.696Z,16.05
2018-03-07T10:12:50.702Z,15.65
2018-03-07T10:15:19.762Z,15.65
2018-03-07T10:17:50.778Z,16.20
2018-03-07T10:20:21.040Z,16.48
2018-03-07T10:22:50.129Z,18.08
2018-03-07T10:25:20.013Z,18.65
2018-03-07T10:30:54.966Z,18.73
2018-03-07T10:39:19.560Z,17.23
2018-03-07T10:41:52.359Z,15.80
2018-03-07T10:44:20.335Z,16.65
2018-03-07T10:49:50.897Z,17.27
2018-03-07T10:52:20.189Z,17.08
2018-03-07T10:54:49.782Z,16.62
2018-03-07T10:57:19.402Z,16.23
2018-03-07T10:59:53.705Z,16.10
2018-03-07T11:02:21.456Z,15.55
2018-03-07T11:04:51.051Z,14.82
2018-03-07T11:07:19.593Z,13.75
2018-03-07T11:09:49.468Z,13.95
2018-03-07T11:12:18.177Z,13.85
2018-03-07T11:14:49.504Z,12.27
2018-03-07T11:17:19.736Z,11.95
2018-03-07T11:19:49.816Z,10.57
2018-03-07T11:22:18.295Z,10.70
2018-03-07T11:24:49.522Z,10.77
2018-03-07T11:27:19.165Z,9.63
2018-03-07T11:29:50.781Z,9.88
2018-03-07T11:32:20.306Z,9.48
2018-03-07T11:34:49.894Z,9.63
2018-03-07T11:37:18.786Z,8.55
2018-03-07T11:39:49.689Z,9.53
2018-03-07T11:42:18.298Z,8.90
2018-03-07T11:44:49.615Z,8.90
2018-03-07T11:47:18.309Z,9.60
2018-03-07T11:49:49.764Z,9.65
2018-03-07T11:52:18.192Z,9.32
2018-03-07T11:54:50.864Z,9.73
2018-03-07T11:57:19.347Z,9.70
2018-03-07T11:59:50.969Z,9.27
2018-03-07T12:02:19.475Z,8.00
2018-03-07T12:04:51.153Z,8.05
2018-03-07T12:07:19.533Z,7.12
2018-03-07T12:09:50.117Z,7.20
2018-03-07T12:12:18.797Z,6.93
2018-03-07T12:14:50.041Z,6.85
2018-03-07T12:17:17.576Z,7.18
2018-03-07T12:19:50.310Z,7.27
2018-03-07T12:22:19.314Z,6.93
2018-03-07T12:24:51.646Z,6.70
2018-03-07T12:27:23.546Z,6.47
2018-03-07T12:29:51.834Z,6.70
2018-03-07T12:32:20.415Z,7.15
2018-03-07T12:34:51.775Z,7.43
2018-03-07T12:37:20.699Z,5.95
2018-03-07T12:39:50.673Z,6.27
2018-03-07T12:42:19.313Z,5.65
2018-03-07T12:44:52.513Z,5.37
2018-03-07T12:47:20.465Z,5.30
2018-03-07T12:49:51.667Z,4.95
2018-03-07T12:52:20.506Z,5.30
2018-03-07T12:54:51.097Z,5.30
2018-03-07T12:57:20.320Z,5.10
2018-03-07T12:59:51.415Z,5.40
2018-03-07T13:02:20.101Z,4.82
2018-03-07T13:04:51.290Z,4.57
2018-03-07T13:07:20.137Z,4.68
2018-03-07T13:09:55.957Z,4.50
2018-03-07T13:12:24.340Z,4.00
2018-03-07T13:14:51.897Z,3.80
2018-03-07T13:17:29.160Z,3.95
2018-03-07T13:19:56.692Z,3.95
2018-03-07T13:22:24.208Z,4.00
2018-03-07T13:24:51.801Z,3.95
2018-03-07T13:27:20.542Z,3.83
2018-03-07T13:29:51.783Z,3.65
2018-03-07T13:32:20.656Z,3.27
2018-03-07T13:34:51.615Z,3.70
2018-03-07T13:37:20.436Z,3.62
2018-03-07T13:39:51.697Z,4.00
2018-03-07T13:42:20.491Z,3.95
2018-03-07T13:44:51.784Z,4.20
2018-03-07T13:47:20.285Z,3.70
2018-03-07T13:49:51.989Z,3.83
2018-03-07T13:52:20.728Z,3.97
2018-03-07T13:54:52.092Z,3.90
2018-03-07T13:57:21.468Z,4.10
2018-03-07T13:59:53.020Z,3.87
2018-03-07T14:02:21.391Z,3.62
2018-03-07T14:04:52.234Z,3.90
2018-03-07T14:07:21.202Z,3.70
2018-03-07T14:09:52.567Z,3.90
2018-03-07T14:12:21.460Z,4.22
2018-03-07T14:14:52.368Z,4.18
2018-03-07T14:17:21.384Z,4.00
2018-03-07T14:19:53.389Z,4.30
2018-03-07T14:22:23.663Z,4.80
2018-03-07T14:24:53.294Z,4.30
2018-03-07T14:30:21.550Z,4.47
2018-03-07T14:32:54.931Z,4.50
2018-03-07T14:35:23.214Z,4.07
2018-03-07T14:37:52.990Z,3.70
2018-03-07T14:40:21.995Z,4.25
2018-03-07T14:42:52.667Z,3.75
2018-03-07T14:45:21.292Z,3.60
2018-03-07T14:47:53.769Z,3.50
2018-03-07T14:50:22.469Z,3.40
2018-03-07T14:52:54.148Z,3.62
2018-03-07T14:55:22.831Z,3.20
2018-03-07T14:57:54.584Z,3.40
2018-03-07T15:00:23.610Z,3.28
2018-03-07T15:02:55.100Z,3.50
2018-03-07T15:05:23.508Z,3.37
2018-03-07T15:07:54.255Z,4.20
2018-03-07T15:10:21.950Z,3.47
2018-03-07T15:12:56.126Z,4.75
2018-03-07T15:15:25.607Z,2.80
2018-03-07T15:17:53.294Z,3.03
2018-03-07T15:20:20.821Z,2.50
2018-03-07T15:22:52.737Z,3.00
2018-03-07T15:25:20.261Z,2.78
2018-03-07T15:27:53.597Z,2.83
2018-03-07T15:30:41.792Z,3.30
2018-03-07T15:33:14.335Z,2.60
2018-03-07T15:35:44.566Z,2.95
2018-03-07T15:38:17.615Z,2.60
2018-03-07T15:40:45.277Z,2.33
2018-03-07T15:43:19.837Z,2.47
2018-03-07T15:45:49.710Z,2.20
2018-03-07T15:48:18.065Z,2.00
2018-03-07T15:50:45.689Z,1.77
2018-03-07T15:53:13.799Z,1.80
2018-03-07T15:55:42.395Z,1.60
2018-03-07T15:58:13.938Z,1.83
2018-03-07T16:00:45.307Z,2.03
2018-03-07T16:03:18.812Z,2.47
2018-03-07T16:05:49.008Z,4.87
2018-03-07T16:08:35.538Z,17.12
2018-03-07T16:11:03.149Z,2.60
2018-03-07T16:13:35.937Z,7.05
2018-03-07T16:16:05.158Z,12.65
2018-03-07T16:18:34.837Z,8.35
2018-03-07T16:21:19.787Z,1.40
2018-03-07T16:29:53.025Z,3.40
2018-03-07T16:32:20.528Z,2.00
2018-03-07T16:37:55.415Z,2.30
2018-03-07T18:44:37.822Z,3.00
2018-03-07T18:47:15.162Z,2.90
2018-03-07T18:49:44.872Z,3.00
2018-03-07T18:52:21.656Z,3.00
2018-03-07T19:00:49.231Z,2.90
2018-03-07T19:03:21.408Z,2.60
2018-03-07T19:14:21.064Z,3.37
2018-03-07T19:22:51.166Z,3.35
2018-03-07T19:25:21.391Z,3.17
2018-03-07T19:34:20.488Z,2.78
2018-03-07T21:16:25.668Z,6.25
2018-03-07T21:18:53.269Z,6.37
2018-03-07T21:21:22.722Z,6.43
2018-03-07T21:29:48.279Z,6.13
2018-03-07T21:32:15.862Z,7.22
2018-03-07T21:34:43.517Z,6.62
2018-03-07T21:37:19.115Z,6.97
2018-03-07T21:39:46.611Z,7.07
2018-03-07T21:42:20.411Z,7.50
2018-03-07T21:44:48.173Z,7.30
2018-03-07T21:47:16.623Z,7.28
2018-03-07T21:49:45.501Z,6.80
2018-03-07T21:52:14.457Z,7.50
2018-03-07T21:54:42.245Z,7.40
2018-03-07T21:57:09.792Z,7.32
2018-03-07T22:02:30.895Z,7.50
2018-03-07T22:04:59.324Z,7.75
2018-03-07T22:07:30.765Z,7.60
2018-03-07T22:09:58.359Z,6.87
2018-03-07T22:12:26.777Z,7.20
2018-03-07T22:14:54.341Z,7.07
2018-03-07T22:17:22.634Z,7.82
2018-03-07T22:19:50.204Z,7.32
2018-03-07T22:22:17.737Z,7.82
2018-03-07T22:24:45.286Z,7.72
2018-03-07T22:27:12.782Z,7.32
2018-03-07T22:29:40.357Z,7.40
2018-03-07T22:32:07.948Z,7.40
2018-03-07T22:34:36.245Z,7.27
2018-03-07T22:37:03.878Z,7.40
2018-03-07T22:39:32.271Z,7.97
2018-03-07T22:41:59.908Z,7.00
2018-03-07T22:44:27.541Z,7.10
2018-03-07T22:46:55.041Z,7.12
2018-03-07T22:49:23.371Z,7.27
2018-03-07T22:51:50.991Z,7.15
2018-03-07T22:54:19.257Z,6.87
2018-03-07T22:56:46.820Z,7.68
2018-03-07T22:59:14.386Z,7.03
2018-03-07T23:01:41.901Z,7.50
2018-03-07T23:04:10.218Z,7.35
2018-03-07T23:06:38.533Z,7.00
2018-03-07T23:09:06.106Z,6.90
2018-03-07T23:11:33.751Z,7.20
2018-03-07T23:14:01.254Z,7.40
2018-03-07T23:16:28.952Z,7.85
2018-03-07T23:18:56.544Z,7.60
2018-03-07T23:21:24.092Z,7.68
2018-03-07T23:23:51.662Z,8.60
2018-03-07T23:26:19.202Z,8.88
2018-03-07T23:28:46.735Z,8.57
2018-03-07T23:31:14.274Z,9.17
2018-03-07T23:33:41.894Z,8.68
2018-03-07T23:36:09.459Z,9.00
2018-03-07T23:38:37.040Z,9.40
2018-03-07T23:41:04.597Z,9.77
2018-03-07T23:43:32.166Z,9.93
2018-03-07T23:45:59.664Z,9.30
2018-03-07T23:48:27.290Z,8.70
2018-03-07T23:50:54.832Z,9.00
2018-03-07T23:53:22.319Z,8.30
2018-03-07T23:55:50.675Z,7.90
2018-03-07T23:58:18.178Z,7.85
